sensor_id;sensor_type;location;lat;lon;timestamp;pressure;altitude;pressure_sealevel;temperature;humidity
7918;BME280;4004;42.624;23.386;2023-03-20T00:01:13;94457.19;;;5.06;84.01
7918;BME280;4004;42.624;23.386;2023-03-20T00:03:40;94451.38;;;5.12;83.63
7918;BME280;4004;42.624;23.386;2023-03-20T00:06:13;94452.50;;;5.11;82.86
7918;BME280;4004;42.624;23.386;2023-03-20T00:08:41;94457.47;;;5.04;82.95
7918;BME280;4004;42.624;23.386;2023-03-20T00:11:26;94443.66;;;4.93;84.77
7918;BME280;4004;42.624;23.386;2023-03-20T00:13:56;94432.38;;;4.88;85.63
7918;BME280;4004;42.624;23.386;2023-03-20T00:16:26;94436.16;;;4.78;86.08
7918;BME280;4004;42.624;23.386;2023-03-20T00:18:53;94440.22;;;4.84;86.08
7918;BME280;4004;42.624;23.386;2023-03-20T00:21:20;94440.38;;;4.79;86.51
7918;BME280;4004;42.624;23.386;2023-03-20T00:23:47;94430.16;;;4.72;86.27
7918;BME280;4004;42.624;23.386;2023-03-20T00:26:17;94437.22;;;4.77;86.16
7918;BME280;4004;42.624;23.386;2023-03-20T00:28:45;94428.75;;;4.75;86.37
7918;BME280;4004;42.624;23.386;2023-03-20T00:31:21;94426.09;;;4.75;86.26
7918;BME280;4004;42.624;23.386;2023-03-20T00:33:50;94426.22;;;4.61;87.23
7918;BME280;4004;42.624;23.386;2023-03-20T00:36:16;94423.72;;;4.65;87.08
7918;BME280;4004;42.624;23.386;2023-03-20T00:38:43;94426.25;;;4.70;86.24
7918;BME280;4004;42.624;23.386;2023-03-20T00:41:22;94422.78;;;4.61;86.00
7918;BME280;4004;42.624;23.386;2023-03-20T00:43:51;94421.53;;;4.67;85.16
7918;BME280;4004;42.624;23.386;2023-03-20T00:46:19;94417.47;;;4.61;85.16
7918;BME280;4004;42.624;23.386;2023-03-20T00:48:46;94420.91;;;4.61;84.71
7918;BME280;4004;42.624;23.386;2023-03-20T00:51:13;94429.19;;;4.60;84.80
7918;BME280;4004;42.624;23.386;2023-03-20T00:53:40;94416.97;;;4.59;83.94
7918;BME280;4004;42.624;23.386;2023-03-20T00:56:20;94414.78;;;4.61;83.75
7918;BME280;4004;42.624;23.386;2023-03-20T00:58:53;94427.31;;;4.51;84.32
7918;BME280;4004;42.624;23.386;2023-03-20T01:01:20;94413.66;;;4.53;85.42
7918;BME280;4004;42.624;23.386;2023-03-20T01:03:47;94411.31;;;4.51;85.17
7918;BME280;4004;42.624;23.386;2023-03-20T01:06:14;94407.81;;;4.42;86.04
7918;BME280;4004;42.624;23.386;2023-03-20T01:08:43;94406.91;;;4.38;86.39
7918;BME280;4004;42.624;23.386;2023-03-20T01:11:11;94401.69;;;4.33;86.95
7918;BME280;4004;42.624;23.386;2023-03-20T01:13:39;94406.53;;;4.31;87.37
7918;BME280;4004;42.624;23.386;2023-03-20T01:16:16;94401.69;;;4.33;87.15
7918;BME280;4004;42.624;23.386;2023-03-20T01:18:45;94398.53;;;4.22;87.00
7918;BME280;4004;42.624;23.386;2023-03-20T01:21:12;94401.19;;;4.22;86.90
7918;BME280;4004;42.624;23.386;2023-03-20T01:23:38;94401.28;;;4.08;87.57
7918;BME280;4004;42.624;23.386;2023-03-20T01:26:17;94401.44;;;4.03;89.73
7918;BME280;4004;42.624;23.386;2023-03-20T01:28:45;94403.19;;;4.08;90.08
7918;BME280;4004;42.624;23.386;2023-03-20T01:31:15;94403.13;;;3.99;91.38
7918;BME280;4004;42.624;23.386;2023-03-20T01:33:42;94403.91;;;4.00;91.72
7918;BME280;4004;42.624;23.386;2023-03-20T01:36:10;94398.63;;;4.08;91.81
7918;BME280;4004;42.624;23.386;2023-03-20T01:38:37;94397.66;;;4.04;92.27
7918;BME280;4004;42.624;23.386;2023-03-20T01:41:06;94402.59;;;3.88;92.51
7918;BME280;4004;42.624;23.386;2023-03-20T01:43:34;94400.72;;;3.89;93.09
7918;BME280;4004;42.624;23.386;2023-03-20T01:46:09;94405.13;;;3.85;93.35
7918;BME280;4004;42.624;23.386;2023-03-20T01:49:04;94403.72;;;3.87;93.58
7918;BME280;4004;42.624;23.386;2023-03-20T01:51:32;94405.22;;;3.80;93.25
7918;BME280;4004;42.624;23.386;2023-03-20T01:54:04;94405.06;;;3.76;93.18
7918;BME280;4004;42.624;23.386;2023-03-20T01:56:36;94404.38;;;3.70;93.09
7918;BME280;4004;42.624;23.386;2023-03-20T01:59:07;94413.00;;;3.67;94.04
7918;BME280;4004;42.624;23.386;2023-03-20T02:01:36;94411.41;;;3.66;94.06
7918;BME280;4004;42.624;23.386;2023-03-20T02:04:04;94413.09;;;3.62;93.90
7918;BME280;4004;42.624;23.386;2023-03-20T02:06:35;94407.47;;;3.64;93.26
7918;BME280;4004;42.624;23.386;2023-03-20T02:09:03;94405.91;;;3.63;92.89
7918;BME280;4004;42.624;23.386;2023-03-20T02:11:30;94404.53;;;3.65;92.62
7918;BME280;4004;42.624;23.386;2023-03-20T02:13:58;94401.13;;;3.73;91.36
7918;BME280;4004;42.624;23.386;2023-03-20T02:16:26;94394.59;;;3.80;90.42
7918;BME280;4004;42.624;23.386;2023-03-20T02:18:54;94390.97;;;3.76;90.03
7918;BME280;4004;42.624;23.386;2023-03-20T02:27:53;94407.97;;;3.66;91.51
7918;BME280;4004;42.624;23.386;2023-03-20T02:39:40;94379.03;;;3.19;93.33
7918;BME280;4004;42.624;23.386;2023-03-20T02:42:15;94410.16;;;3.41;93.80
7918;BME280;4004;42.624;23.386;2023-03-20T02:44:52;94411.72;;;3.42;93.92
7918;BME280;4004;42.624;23.386;2023-03-20T02:47:26;94407.78;;;3.40;93.73
7918;BME280;4004;42.624;23.386;2023-03-20T02:50:02;94404.66;;;3.38;93.76
7918;BME280;4004;42.624;23.386;2023-03-20T02:52:42;94396.56;;;3.43;93.22
7918;BME280;4004;42.624;23.386;2023-03-20T02:55:16;94391.13;;;3.48;92.55
7918;BME280;4004;42.624;23.386;2023-03-20T02:57:51;94393.78;;;3.48;92.27
7918;BME280;4004;42.624;23.386;2023-03-20T03:00:27;94386.72;;;3.43;91.58
7918;BME280;4004;42.624;23.386;2023-03-20T03:03:00;94391.91;;;3.48;91.65
7918;BME280;4004;42.624;23.386;2023-03-20T03:05:35;94382.66;;;3.46;91.54
7918;BME280;4004;42.624;23.386;2023-03-20T03:08:03;94390.44;;;3.42;91.45
7918;BME280;4004;42.624;23.386;2023-03-20T03:10:35;94389.66;;;3.42;91.33
7918;BME280;4004;42.624;23.386;2023-03-20T03:13:04;94386.03;;;3.38;91.84
7918;BME280;4004;42.624;23.386;2023-03-20T03:15:35;94386.31;;;3.27;91.89
7918;BME280;4004;42.624;23.386;2023-03-20T03:18:05;94398.00;;;3.26;92.44
7918;BME280;4004;42.624;23.386;2023-03-20T03:20:36;94392.09;;;3.29;92.33
7918;BME280;4004;42.624;23.386;2023-03-20T03:23:05;94393.66;;;3.30;92.33
7918;BME280;4004;42.624;23.386;2023-03-20T03:25:37;94389.38;;;3.21;92.54
7918;BME280;4004;42.624;23.386;2023-03-20T03:28:08;94379.72;;;3.25;93.13
7918;BME280;4004;42.624;23.386;2023-03-20T03:30:41;94373.50;;;3.29;92.20
7918;BME280;4004;42.624;23.386;2023-03-20T03:33:13;94388.00;;;3.23;92.78
7918;BME280;4004;42.624;23.386;2023-03-20T03:35:41;94388.78;;;3.24;92.66
7918;BME280;4004;42.624;23.386;2023-03-20T03:38:20;94392.53;;;3.23;92.77
7918;BME280;4004;42.624;23.386;2023-03-20T03:41:01;94390.84;;;3.27;92.87
7918;BME280;4004;42.624;23.386;2023-03-20T03:43:35;94394.63;;;3.35;92.01
7918;BME280;4004;42.624;23.386;2023-03-20T03:46:10;94388.97;;;3.27;91.37
7918;BME280;4004;42.624;23.386;2023-03-20T03:48:43;94395.47;;;3.21;91.93
7918;BME280;4004;42.624;23.386;2023-03-20T03:51:13;94400.59;;;3.18;92.50
7918;BME280;4004;42.624;23.386;2023-03-20T03:53:45;94395.63;;;3.02;94.80
7918;BME280;4004;42.624;23.386;2023-03-20T03:56:19;94391.34;;;2.93;96.12
7918;BME280;4004;42.624;23.386;2023-03-20T03:58:47;94397.97;;;2.81;98.28
7918;BME280;4004;42.624;23.386;2023-03-20T04:01:16;94396.09;;;2.82;99.39
7918;BME280;4004;42.624;23.386;2023-03-20T04:03:47;94390.97;;;2.85;99.30
7918;BME280;4004;42.624;23.386;2023-03-20T04:06:16;94381.16;;;2.72;99.80
7918;BME280;4004;42.624;23.386;2023-03-20T04:08:43;94379.28;;;2.73;100.00
7918;BME280;4004;42.624;23.386;2023-03-20T04:11:15;94383.03;;;2.72;100.00
7918;BME280;4004;42.624;23.386;2023-03-20T04:13:43;94379.00;;;2.74;100.00
7918;BME280;4004;42.624;23.386;2023-03-20T04:16:12;94380.06;;;2.73;100.00
7918;BME280;4004;42.624;23.386;2023-03-20T04:18:39;94366.44;;;2.66;100.00
7918;BME280;4004;42.624;23.386;2023-03-20T04:21:07;94372.19;;;2.82;100.00
7918;BME280;4004;42.624;23.386;2023-03-20T04:23:34;94370.00;;;2.84;100.00
7918;BME280;4004;42.624;23.386;2023-03-20T04:26:02;94379.25;;;2.86;99.35
7918;BME280;4004;42.624;23.386;2023-03-20T04:28:30;94371.19;;;2.92;99.69
7918;BME280;4004;42.624;23.386;2023-03-20T04:30:59;94373.22;;;2.95;99.30
7918;BME280;4004;42.624;23.386;2023-03-20T04:33:26;94371.69;;;2.94;99.30
7918;BME280;4004;42.624;23.386;2023-03-20T04:35:54;94379.09;;;3.05;98.14
7918;BME280;4004;42.624;23.386;2023-03-20T04:38:21;94359.59;;;3.10;97.79
7918;BME280;4004;42.624;23.386;2023-03-20T04:40:48;94367.44;;;3.15;97.19
7918;BME280;4004;42.624;23.386;2023-03-20T04:43:15;94367.22;;;3.25;96.88
7918;BME280;4004;42.624;23.386;2023-03-20T04:45:44;94367.00;;;3.44;94.98
7918;BME280;4004;42.624;23.386;2023-03-20T04:48:10;94371.94;;;3.60;94.13
7918;BME280;4004;42.624;23.386;2023-03-20T04:50:37;94373.59;;;3.69;93.82
7918;BME280;4004;42.624;23.386;2023-03-20T04:53:04;94376.63;;;3.85;92.90
7918;BME280;4004;42.624;23.386;2023-03-20T04:55:31;94386.06;;;4.00;91.26
7918;BME280;4004;42.624;23.386;2023-03-20T04:57:58;94385.63;;;4.07;91.27
7918;BME280;4004;42.624;23.386;2023-03-20T05:00:24;94392.03;;;4.46;89.97
7918;BME280;4004;42.624;23.386;2023-03-20T05:02:53;94388.66;;;4.71;88.03
7918;BME280;4004;42.624;23.386;2023-03-20T05:05:19;94402.91;;;4.84;85.94
7918;BME280;4004;42.624;23.386;2023-03-20T05:07:46;94397.28;;;4.94;85.59
7918;BME280;4004;42.624;23.386;2023-03-20T05:10:13;94411.13;;;5.14;84.31
7918;BME280;4004;42.624;23.386;2023-03-20T05:12:40;94416.44;;;5.14;83.10
7918;BME280;4004;42.624;23.386;2023-03-20T05:15:07;94412.66;;;5.32;82.33
7918;BME280;4004;42.624;23.386;2023-03-20T05:17:34;94408.91;;;5.42;80.60
7918;BME280;4004;42.624;23.386;2023-03-20T05:20:03;94414.97;;;5.69;78.57
7918;BME280;4004;42.624;23.386;2023-03-20T05:22:31;94415.44;;;5.79;76.70
7918;BME280;4004;42.624;23.386;2023-03-20T05:24:57;94419.19;;;5.87;76.78
7918;BME280;4004;42.624;23.386;2023-03-20T05:27:25;94415.59;;;5.83;75.80
7918;BME280;4004;42.624;23.386;2023-03-20T05:29:52;94421.41;;;5.76;76.08
7918;BME280;4004;42.624;23.386;2023-03-20T05:32:18;94423.81;;;5.60;78.30
7918;BME280;4004;42.624;23.386;2023-03-20T05:34:45;94420.97;;;5.57;77.54
7918;BME280;4004;42.624;23.386;2023-03-20T05:37:13;94431.00;;;5.69;77.99
7918;BME280;4004;42.624;23.386;2023-03-20T05:39:40;94427.66;;;5.98;76.84
7918;BME280;4004;42.624;23.386;2023-03-20T05:42:06;94428.50;;;6.37;74.93
7918;BME280;4004;42.624;23.386;2023-03-20T05:44:33;94425.66;;;6.72;73.53
7918;BME280;4004;42.624;23.386;2023-03-20T05:47:00;94413.84;;;7.23;71.62
7918;BME280;4004;42.624;23.386;2023-03-20T05:49:27;94432.47;;;7.74;69.16
7918;BME280;4004;42.624;23.386;2023-03-20T05:51:54;94428.38;;;8.22;66.37
7918;BME280;4004;42.624;23.386;2023-03-20T05:54:22;94428.22;;;8.64;63.88
7918;BME280;4004;42.624;23.386;2023-03-20T05:56:48;94434.81;;;8.91;61.32
7918;BME280;4004;42.624;23.386;2023-03-20T05:59:15;94441.81;;;9.08;59.29
7918;BME280;4004;42.624;23.386;2023-03-20T06:01:42;94434.09;;;9.19;58.83
7918;BME280;4004;42.624;23.386;2023-03-20T06:04:08;94438.28;;;9.45;58.05
7918;BME280;4004;42.624;23.386;2023-03-20T06:06:35;94433.00;;;9.61;57.53
7918;BME280;4004;42.624;23.386;2023-03-20T06:09:02;94427.78;;;9.52;57.32
7918;BME280;4004;42.624;23.386;2023-03-20T06:11:30;94435.38;;;9.78;57.22
7918;BME280;4004;42.624;23.386;2023-03-20T06:13:58;94428.38;;;10.17;56.26
7918;BME280;4004;42.624;23.386;2023-03-20T06:16:24;94425.66;;;10.62;55.35
7918;BME280;4004;42.624;23.386;2023-03-20T06:18:51;94427.44;;;11.05;54.75
7918;BME280;4004;42.624;23.386;2023-03-20T06:21:18;94425.78;;;11.36;53.36
7918;BME280;4004;42.624;23.386;2023-03-20T06:23:45;94444.81;;;11.43;52.71
7918;BME280;4004;42.624;23.386;2023-03-20T06:26:12;94441.06;;;11.48;52.16
7918;BME280;4004;42.624;23.386;2023-03-20T06:28:40;94443.97;;;11.58;51.88
7918;BME280;4004;42.624;23.386;2023-03-20T06:31:06;94442.97;;;11.86;51.26
7918;BME280;4004;42.624;23.386;2023-03-20T06:33:34;94443.53;;;11.76;50.51
7918;BME280;4004;42.624;23.386;2023-03-20T06:36:02;94439.44;;;11.82;50.72
7918;BME280;4004;42.624;23.386;2023-03-20T06:38:29;94448.47;;;11.90;49.93
7918;BME280;4004;42.624;23.386;2023-03-20T06:40:56;94440.84;;;11.56;50.52
7918;BME280;4004;42.624;23.386;2023-03-20T06:43:23;94434.81;;;11.44;50.65
7918;BME280;4004;42.624;23.386;2023-03-20T06:45:51;94439.22;;;11.16;51.14
7918;BME280;4004;42.624;23.386;2023-03-20T06:48:18;94440.91;;;11.05;50.74
7918;BME280;4004;42.624;23.386;2023-03-20T06:50:46;94438.41;;;10.96;51.15
7918;BME280;4004;42.624;23.386;2023-03-20T06:53:13;94445.66;;;11.12;50.27
7918;BME280;4004;42.624;23.386;2023-03-20T06:55:40;94444.13;;;11.66;49.70
7918;BME280;4004;42.624;23.386;2023-03-20T06:58:07;94449.34;;;11.78;49.59
7918;BME280;4004;42.624;23.386;2023-03-20T07:00:34;94435.88;;;11.78;48.39
7918;BME280;4004;42.624;23.386;2023-03-20T07:03:03;94435.31;;;11.69;48.70
7918;BME280;4004;42.624;23.386;2023-03-20T07:05:30;94429.66;;;11.74;49.73
7918;BME280;4004;42.624;23.386;2023-03-20T07:07:58;94432.56;;;12.04;48.87
7918;BME280;4004;42.624;23.386;2023-03-20T07:10:25;94432.13;;;12.21;47.89
7918;BME280;4004;42.624;23.386;2023-03-20T07:12:52;94427.00;;;12.59;47.66
7918;BME280;4004;42.624;23.386;2023-03-20T07:15:20;94432.03;;;12.83;47.21
7918;BME280;4004;42.624;23.386;2023-03-20T07:17:47;94429.97;;;13.00;46.83
7918;BME280;4004;42.624;23.386;2023-03-20T07:20:15;94424.97;;;13.55;46.16
7918;BME280;4004;42.624;23.386;2023-03-20T07:22:42;94421.53;;;13.88;45.40
7918;BME280;4004;42.624;23.386;2023-03-20T07:25:09;94430.06;;;14.28;44.67
7918;BME280;4004;42.624;23.386;2023-03-20T07:27:36;94412.72;;;14.33;44.20
7918;BME280;4004;42.624;23.386;2023-03-20T07:30:04;94427.66;;;14.57;43.80
7918;BME280;4004;42.624;23.386;2023-03-20T07:32:31;94415.94;;;14.86;42.98
7918;BME280;4004;42.624;23.386;2023-03-20T07:34:58;94416.72;;;14.49;43.46
7918;BME280;4004;42.624;23.386;2023-03-20T07:37:26;94407.38;;;14.36;43.39
7918;BME280;4004;42.624;23.386;2023-03-20T07:39:52;94410.28;;;14.58;42.85
7918;BME280;4004;42.624;23.386;2023-03-20T07:42:19;94421.09;;;14.58;42.86
7918;BME280;4004;42.624;23.386;2023-03-20T07:44:46;94410.06;;;14.77;42.95
7918;BME280;4004;42.624;23.386;2023-03-20T07:47:13;94414.13;;;15.05;42.88
7918;BME280;4004;42.624;23.386;2023-03-20T07:49:39;94415.47;;;15.32;41.68
7918;BME280;4004;42.624;23.386;2023-03-20T07:52:07;94410.63;;;15.67;41.08
7918;BME280;4004;42.624;23.386;2023-03-20T07:54:35;94419.78;;;15.44;41.38
7918;BME280;4004;42.624;23.386;2023-03-20T07:57:02;94414.88;;;15.61;41.44
7918;BME280;4004;42.624;23.386;2023-03-20T07:59:30;94399.00;;;15.66;41.19
7918;BME280;4004;42.624;23.386;2023-03-20T08:01:56;94416.88;;;15.74;41.32
7918;BME280;4004;42.624;23.386;2023-03-20T08:04:23;94418.09;;;15.88;40.39
7918;BME280;4004;42.624;23.386;2023-03-20T08:06:50;94427.50;;;16.15;40.49
7918;BME280;4004;42.624;23.386;2023-03-20T08:09:17;94432.13;;;16.11;39.95
7918;BME280;4004;42.624;23.386;2023-03-20T08:11:46;94421.13;;;15.75;40.74
7918;BME280;4004;42.624;23.386;2023-03-20T08:14:12;94427.88;;;16.17;40.15
7918;BME280;4004;42.624;23.386;2023-03-20T08:16:39;94416.34;;;16.56;39.48
7918;BME280;4004;42.624;23.386;2023-03-20T08:19:06;94432.69;;;16.92;38.77
7918;BME280;4004;42.624;23.386;2023-03-20T08:21:33;94437.34;;;17.17;38.16
7918;BME280;4004;42.624;23.386;2023-03-20T08:24:00;94431.50;;;17.18;38.19
7918;BME280;4004;42.624;23.386;2023-03-20T08:26:27;94423.38;;;16.86;38.44
7918;BME280;4004;42.624;23.386;2023-03-20T08:28:55;94433.84;;;16.88;38.46
7918;BME280;4004;42.624;23.386;2023-03-20T08:31:21;94429.06;;;16.24;40.25
7918;BME280;4004;42.624;23.386;2023-03-20T08:33:48;94428.41;;;15.64;41.81
7918;BME280;4004;42.624;23.386;2023-03-20T08:36:15;94428.69;;;15.41;42.79
7918;BME280;4004;42.624;23.386;2023-03-20T08:38:44;94429.25;;;15.09;43.04
7918;BME280;4004;42.624;23.386;2023-03-20T08:41:11;94424.00;;;14.83;43.55
7918;BME280;4004;42.624;23.386;2023-03-20T08:43:38;94438.03;;;14.92;43.56
7918;BME280;4004;42.624;23.386;2023-03-20T08:46:07;94417.56;;;14.54;44.26
7918;BME280;4004;42.624;23.386;2023-03-20T08:48:33;94420.50;;;14.38;44.03
7918;BME280;4004;42.624;23.386;2023-03-20T08:51:00;94426.47;;;14.17;44.74
7918;BME280;4004;42.624;23.386;2023-03-20T08:53:27;94415.50;;;14.02;45.29
7918;BME280;4004;42.624;23.386;2023-03-20T08:55:53;94418.03;;;14.22;45.21
7918;BME280;4004;42.624;23.386;2023-03-20T08:58:22;94413.38;;;14.19;44.87
7918;BME280;4004;42.624;23.386;2023-03-20T09:00:48;94410.66;;;14.19;44.95
7918;BME280;4004;42.624;23.386;2023-03-20T09:03:18;94412.69;;;14.29;45.22
7918;BME280;4004;42.624;23.386;2023-03-20T09:05:45;94413.66;;;14.51;44.78
7918;BME280;4004;42.624;23.386;2023-03-20T09:08:13;94411.97;;;14.32;45.33
7918;BME280;4004;42.624;23.386;2023-03-20T09:10:40;94403.44;;;14.34;45.10
7918;BME280;4004;42.624;23.386;2023-03-20T09:13:07;94401.97;;;14.40;44.89
7918;BME280;4004;42.624;23.386;2023-03-20T09:15:34;94401.56;;;14.38;44.75
7918;BME280;4004;42.624;23.386;2023-03-20T09:18:01;94404.56;;;14.29;44.98
7918;BME280;4004;42.624;23.386;2023-03-20T09:20:29;94400.72;;;14.30;45.16
7918;BME280;4004;42.624;23.386;2023-03-20T09:22:57;94402.63;;;14.26;44.86
7918;BME280;4004;42.624;23.386;2023-03-20T09:25:23;94399.47;;;14.20;45.98
7918;BME280;4004;42.624;23.386;2023-03-20T09:27:50;94402.22;;;14.24;45.21
7918;BME280;4004;42.624;23.386;2023-03-20T09:30:20;94391.13;;;14.36;44.88
7918;BME280;4004;42.624;23.386;2023-03-20T09:32:47;94393.78;;;14.33;44.84
7918;BME280;4004;42.624;23.386;2023-03-20T09:35:14;94394.56;;;14.29;44.87
7918;BME280;4004;42.624;23.386;2023-03-20T09:37:43;94387.41;;;14.10;45.21
7918;BME280;4004;42.624;23.386;2023-03-20T09:40:20;94380.75;;;14.04;45.19
7918;BME280;4004;42.624;23.386;2023-03-20T09:42:52;94380.50;;;14.17;45.36
7918;BME280;4004;42.624;23.386;2023-03-20T09:45:43;94375.63;;;14.33;45.14
7918;BME280;4004;42.624;23.386;2023-03-20T09:48:15;94365.72;;;14.48;45.08
7918;BME280;4004;42.624;23.386;2023-03-20T09:50:48;94359.69;;;14.62;43.50
7918;BME280;4004;42.624;23.386;2023-03-20T09:53:27;94359.28;;;14.60;43.68
7918;BME280;4004;42.624;23.386;2023-03-20T09:55:56;94348.09;;;14.61;43.94
7918;BME280;4004;42.624;23.386;2023-03-20T09:58:24;94349.09;;;14.49;43.73
7918;BME280;4004;42.624;23.386;2023-03-20T10:00:54;94347.06;;;14.36;43.90
7918;BME280;4004;42.624;23.386;2023-03-20T10:03:26;94327.81;;;14.44;43.21
7918;BME280;4004;42.624;23.386;2023-03-20T10:05:56;94331.78;;;14.54;44.26
7918;BME280;4004;42.624;23.386;2023-03-20T10:08:28;94330.16;;;14.49;42.55
7918;BME280;4004;42.624;23.386;2023-03-20T10:11:03;94325.97;;;14.52;43.99
7918;BME280;4004;42.624;23.386;2023-03-20T10:13:46;94310.09;;;14.50;43.58
7918;BME280;4004;42.624;23.386;2023-03-20T10:16:18;94310.44;;;14.45;43.86
7918;BME280;4004;42.624;23.386;2023-03-20T10:18:54;94312.47;;;14.56;43.92
7918;BME280;4004;42.624;23.386;2023-03-20T10:21:31;94306.63;;;14.54;44.16
7918;BME280;4004;42.624;23.386;2023-03-20T10:24:03;94298.91;;;14.52;43.88
7918;BME280;4004;42.624;23.386;2023-03-20T10:26:32;94308.56;;;14.53;44.13
7918;BME280;4004;42.624;23.386;2023-03-20T10:29:01;94304.00;;;14.57;43.92
7918;BME280;4004;42.624;23.386;2023-03-20T10:31:42;94291.66;;;14.67;43.76
7918;BME280;4004;42.624;23.386;2023-03-20T10:34:21;94305.28;;;14.78;43.03
7918;BME280;4004;42.624;23.386;2023-03-20T10:37:03;94287.53;;;14.84;42.82
7918;BME280;4004;42.624;23.386;2023-03-20T10:39:46;94291.84;;;14.96;41.61
7918;BME280;4004;42.624;23.386;2023-03-20T10:42:20;94293.38;;;14.93;41.84
7918;BME280;4004;42.624;23.386;2023-03-20T10:44:55;94281.06;;;14.99;41.96
7918;BME280;4004;42.624;23.386;2023-03-20T10:47:27;94278.78;;;15.08;41.92
7918;BME280;4004;42.624;23.386;2023-03-20T10:49:57;94278.41;;;15.13;42.05
7918;BME280;4004;42.624;23.386;2023-03-20T10:52:28;94274.13;;;15.09;41.76
7918;BME280;4004;42.624;23.386;2023-03-20T10:55:00;94261.41;;;15.20;41.81
7918;BME280;4004;42.624;23.386;2023-03-20T10:57:30;94267.63;;;15.31;41.84
7918;BME280;4004;42.624;23.386;2023-03-20T10:59:59;94262.63;;;15.37;41.57
7918;BME280;4004;42.624;23.386;2023-03-20T11:02:28;94268.50;;;15.50;42.09
7918;BME280;4004;42.624;23.386;2023-03-20T11:04:55;94263.47;;;15.55;41.88
7918;BME280;4004;42.624;23.386;2023-03-20T11:07:24;94257.66;;;15.57;41.49
7918;BME280;4004;42.624;23.386;2023-03-20T11:10:14;94258.84;;;15.63;40.70
7918;BME280;4004;42.624;23.386;2023-03-20T11:12:43;94244.53;;;15.66;40.79
7918;BME280;4004;42.624;23.386;2023-03-20T11:15:19;94250.38;;;15.75;40.64
7918;BME280;4004;42.624;23.386;2023-03-20T11:17:51;94234.50;;;15.78;40.48
7918;BME280;4004;42.624;23.386;2023-03-20T11:20:18;94237.59;;;15.94;40.39
7918;BME280;4004;42.624;23.386;2023-03-20T11:22:46;94220.59;;;15.97;39.73
7918;BME280;4004;42.624;23.386;2023-03-20T11:25:24;94231.81;;;16.03;39.76
7918;BME280;4004;42.624;23.386;2023-03-20T11:27:54;94230.25;;;16.16;39.25
7918;BME280;4004;42.624;23.386;2023-03-20T11:30:21;94219.41;;;16.27;38.68
7918;BME280;4004;42.624;23.386;2023-03-20T11:32:49;94219.03;;;16.32;38.73
7918;BME280;4004;42.624;23.386;2023-03-20T11:35:25;94214.34;;;16.47;38.50
7918;BME280;4004;42.624;23.386;2023-03-20T11:38:07;94206.16;;;16.65;37.62
7918;BME280;4004;42.624;23.386;2023-03-20T11:40:38;94203.44;;;16.68;37.53
7918;BME280;4004;42.624;23.386;2023-03-20T11:43:10;94202.28;;;16.62;37.53
7918;BME280;4004;42.624;23.386;2023-03-20T11:45:39;94196.84;;;16.69;37.63
7918;BME280;4004;42.624;23.386;2023-03-20T11:48:15;94189.47;;;16.73;36.84
7918;BME280;4004;42.624;23.386;2023-03-20T11:50:46;94188.69;;;16.76;36.84
7918;BME280;4004;42.624;23.386;2023-03-20T11:53:27;94192.56;;;16.83;37.19
7918;BME280;4004;42.624;23.386;2023-03-20T11:56:08;94185.56;;;16.78;39.92
7918;BME280;4004;42.624;23.386;2023-03-20T11:58:38;94167.31;;;16.96;37.41
7918;BME280;4004;42.624;23.386;2023-03-20T12:01:12;94169.16;;;17.14;36.62
7918;BME280;4004;42.624;23.386;2023-03-20T12:03:42;94174.19;;;17.19;38.92
7918;BME280;4004;42.624;23.386;2023-03-20T12:06:14;94175.34;;;17.22;35.75
7918;BME280;4004;42.624;23.386;2023-03-20T12:08:45;94166.78;;;17.27;35.84
7918;BME280;4004;42.624;23.386;2023-03-20T12:11:44;94160.91;;;17.32;35.47
7918;BME280;4004;42.624;23.386;2023-03-20T12:14:21;94159.00;;;17.32;35.96
7918;BME280;4004;42.624;23.386;2023-03-20T12:16:52;94152.38;;;17.33;35.59
7918;BME280;4004;42.624;23.386;2023-03-20T12:19:26;94154.63;;;17.46;35.64
7918;BME280;4004;42.624;23.386;2023-03-20T12:21:59;94142.53;;;17.54;35.18
7918;BME280;4004;42.624;23.386;2023-03-20T12:24:32;94146.75;;;17.66;34.67
7918;BME280;4004;42.624;23.386;2023-03-20T12:27:14;94139.72;;;17.68;34.80
7918;BME280;4004;42.624;23.386;2023-03-20T12:29:46;94141.63;;;17.71;34.03
7918;BME280;4004;42.624;23.386;2023-03-20T12:32:16;94140.47;;;17.72;33.75
7918;BME280;4004;42.624;23.386;2023-03-20T12:34:48;94131.78;;;17.92;33.46
7918;BME280;4004;42.624;23.386;2023-03-20T12:37:16;94134.16;;;17.90;33.10
7918;BME280;4004;42.624;23.386;2023-03-20T12:39:47;94127.16;;;17.85;33.00
7918;BME280;4004;42.624;23.386;2023-03-20T12:42:28;94133.41;;;17.86;32.98
7918;BME280;4004;42.624;23.386;2023-03-20T12:44:58;94123.69;;;17.85;33.16
7918;BME280;4004;42.624;23.386;2023-03-20T12:47:42;94122.47;;;17.89;33.12
7918;BME280;4004;42.624;23.386;2023-03-20T12:50:18;94118.13;;;17.99;33.22
7918;BME280;4004;42.624;23.386;2023-03-20T12:52:57;94122.28;;;18.14;31.99
7918;BME280;4004;42.624;23.386;2023-03-20T12:55:34;94108.69;;;18.11;31.95
7918;BME280;4004;42.624;23.386;2023-03-20T12:58:17;94105.16;;;18.14;32.23
7918;BME280;4004;42.624;23.386;2023-03-20T13:00:52;94110.28;;;18.08;31.98
7918;BME280;4004;42.624;23.386;2023-03-20T13:03:35;94099.50;;;17.97;32.09
7918;BME280;4004;42.624;23.386;2023-03-20T13:06:10;94099.88;;;17.99;32.15
7918;BME280;4004;42.624;23.386;2023-03-20T13:08:57;94097.16;;;17.96;32.21
7918;BME280;4004;42.624;23.386;2023-03-20T13:11:30;94096.41;;;17.95;32.21
7918;BME280;4004;42.624;23.386;2023-03-20T13:14:07;94095.59;;;17.98;31.94
7918;BME280;4004;42.624;23.386;2023-03-20T13:16:45;94091.19;;;18.12;31.56
7918;BME280;4004;42.624;23.386;2023-03-20T13:19:23;94090.69;;;18.24;31.45
7918;BME280;4004;42.624;23.386;2023-03-20T13:21:55;94079.44;;;18.22;31.59
7918;BME280;4004;42.624;23.386;2023-03-20T13:24:32;94077.47;;;18.22;31.65
7918;BME280;4004;42.624;23.386;2023-03-20T13:27:10;94065.78;;;18.26;31.29
7918;BME280;4004;42.624;23.386;2023-03-20T13:29:46;94080.94;;;18.27;30.92
7918;BME280;4004;42.624;23.386;2023-03-20T13:32:23;94068.91;;;18.24;30.74
7918;BME280;4004;42.624;23.386;2023-03-20T13:35:05;94073.88;;;18.33;30.19
7918;BME280;4004;42.624;23.386;2023-03-20T13:37:36;94068.47;;;18.29;30.49
7918;BME280;4004;42.624;23.386;2023-03-20T13:40:13;94056.28;;;18.41;30.06
7918;BME280;4004;42.624;23.386;2023-03-20T13:42:46;94050.84;;;18.41;30.50
7918;BME280;4004;42.624;23.386;2023-03-20T13:45:35;94051.28;;;18.36;29.55
7918;BME280;4004;42.624;23.386;2023-03-20T13:48:18;94060.56;;;18.38;28.99